createdAt,value
2023-04-10T00:01:04.384Z,102053.13
2023-04-10T00:05:55.161Z,102049.59
2023-04-10T00:10:48.754Z,102041.66
2023-04-10T00:15:40.323Z,102035.53
2023-04-10T00:20:31.818Z,102029.34
2023-04-10T00:25:23.508Z,102031.94
2023-04-10T00:30:19.918Z,102035.28
2023-04-10T00:35:12.856Z,102032.59
2023-04-10T00:40:09.093Z,102033.31
2023-04-10T00:45:02.852Z,102026.44
2023-04-10T00:49:57.536Z,102021.28
2023-04-10T00:54:57.599Z,102007.44
2023-04-10T00:59:52.806Z,102017.81
2023-04-10T01:04:48.275Z,102001.38
2023-04-10T01:09:54.585Z,101996.19
2023-04-10T01:14:54.737Z,101978.84
2023-04-10T01:20:06.136Z,101983.09
2023-04-10T01:25:20.484Z,101972.63
2023-04-10T01:30:18.901Z,101969.88
2023-04-10T01:35:14.515Z,101963.84
2023-04-10T01:40:07.737Z,101969.81
2023-04-10T01:45:01.324Z,101959.50
2023-04-10T01:49:58.475Z,101956.78
2023-04-10T01:54:53.681Z,101944.66
2023-04-10T01:59:54.082Z,101941.19
2023-04-10T02:04:47.466Z,101952.38
2023-04-10T02:09:55.803Z,101943.69
2023-04-10T02:14:52.961Z,101942.69
2023-04-10T02:19:49.116Z,101943.56
2023-04-10T02:24:40.107Z,101936.56
2023-04-10T02:29:33.744Z,101942.66
2023-04-10T02:34:34.401Z,101947.94
2023-04-10T02:39:29.826Z,101944.47
2023-04-10T02:44:29.746Z,101942.69
2023-04-10T02:49:26.409Z,101954.69
2023-04-10T02:54:17.656Z,101958.16
2023-04-10T02:59:11.280Z,101959.88
2023-04-10T03:04:06.031Z,101959.72
2023-04-10T03:09:11.552Z,101952.94
2023-04-10T03:14:02.661Z,101938.25
2023-04-10T03:18:57.492Z,101940.69
2023-04-10T03:23:48.467Z,101940.72
2023-04-10T03:28:45.465Z,101921.63
2023-04-10T03:33:36.590Z,101925.78
2023-04-10T03:38:31.691Z,101929.28
2023-04-10T03:43:25.254Z,101919.00
2023-04-10T03:48:19.659Z,101891.31
2023-04-10T03:53:11.494Z,101895.59
2023-04-10T03:58:05.488Z,101888.69
2023-04-10T04:02:57.404Z,101870.38
2023-04-10T04:08:11.524Z,101872.06
2023-04-10T04:13:21.578Z,101884.88
2023-04-10T04:18:20.773Z,101881.41
2023-04-10T04:23:23.270Z,101876.22
2023-04-10T04:28:42.551Z,101868.34
2023-04-10T04:33:50.932Z,101870.94
2023-04-10T04:38:54.178Z,101858.03
2023-04-10T04:44:09.439Z,101837.16
2023-04-10T04:49:20.844Z,101831.13
2023-04-10T04:54:33.329Z,101832.00
2023-04-10T04:59:46.030Z,101844.06
2023-04-10T05:05:02.834Z,101838.28
2023-04-10T05:10:22.775Z,101834.03
2023-04-10T05:15:39.948Z,101833.97
2023-04-10T05:20:53.504Z,101830.53
2023-04-10T05:26:07.491Z,101842.63
2023-04-10T05:31:15.940Z,101836.56
2023-04-10T05:36:36.368Z,101831.31
2023-04-10T05:41:39.971Z,101842.59
2023-04-10T05:46:45.807Z,101839.22
2023-04-10T05:52:17.081Z,101839.25
2023-04-10T05:57:30.114Z,101817.69
2023-04-10T06:02:37.252Z,101827.22
2023-04-10T06:07:32.963Z,101813.47
2023-04-10T06:12:24.824Z,101816.06
2023-04-10T06:17:22.140Z,101810.00
2023-04-10T06:22:13.386Z,101808.38
2023-04-10T06:27:05.709Z,101787.59
2023-04-10T06:31:57.455Z,101783.38
2023-04-10T06:36:59.319Z,101769.59
2023-04-10T06:41:51.021Z,101766.16
2023-04-10T06:47:02.990Z,101762.81
2023-04-10T06:51:58.814Z,101758.47
2023-04-10T06:56:51.828Z,101744.72
2023-04-10T07:01:42.773Z,101732.72
2023-04-10T07:06:36.331Z,101733.66
2023-04-10T07:11:32.008Z,101723.38
2023-04-10T07:16:33.791Z,101704.41
2023-04-10T07:21:25.292Z,101712.31
2023-04-10T07:26:19.017Z,101700.28
2023-04-10T07:31:15.456Z,101699.53
2023-04-10T07:36:09.790Z,101687.47
2023-04-10T07:41:07.615Z,101684.88
2023-04-10T07:46:00.029Z,101682.28
2023-04-10T07:50:54.349Z,101660.59
2023-04-10T07:55:50.235Z,101671.06
2023-04-10T08:00:42.098Z,101664.16
2023-04-10T08:05:39.599Z,101657.22
2023-04-10T08:10:34.805Z,101649.44
2023-04-10T08:15:29.507Z,101630.41
2023-04-10T08:20:20.894Z,101626.06
2023-04-10T08:25:13.014Z,101626.91
2023-04-10T08:30:07.288Z,101619.13
2023-04-10T08:35:06.749Z,101630.44
2023-04-10T08:40:02.332Z,101622.66
2023-04-10T08:45:07.001Z,101619.22
2023-04-10T08:50:06.318Z,101616.66
2023-04-10T08:55:01.511Z,101597.56
2023-04-10T08:59:56.594Z,101593.25
2023-04-10T09:04:53.022Z,101584.53
2023-04-10T09:10:09.468Z,101570.69
2023-04-10T09:15:02.652Z,101556.78
2023-04-10T09:20:01.227Z,101558.50
2023-04-10T09:24:55.350Z,101555.03
2023-04-10T09:29:55.253Z,101559.38
2023-04-10T09:35:00.051Z,101550.69
2023-04-10T09:39:53.779Z,101537.66
2023-04-10T09:44:45.926Z,101543.66
2023-04-10T09:49:53.518Z,101528.00
2023-04-10T09:54:49.830Z,101520.94
2023-04-10T09:59:44.246Z,101528.72
2023-04-10T10:04:36.085Z,101508.69
2023-04-10T10:09:29.404Z,101506.84
2023-04-10T10:14:26.223Z,101493.72
2023-04-10T10:19:21.747Z,101473.53
2023-04-10T10:24:13.671Z,101473.06
2023-04-10T10:29:11.248Z,101472.00
2023-04-10T10:34:08.052Z,101470.88
2023-04-10T10:39:13.733Z,101449.94
2023-04-10T10:44:18.261Z,101442.78
2023-04-10T10:49:17.470Z,101430.25
2023-04-10T10:54:27.928Z,101413.03
2023-04-10T10:59:20.352Z,101403.06
2023-04-10T11:04:41.078Z,101393.88
2023-04-10T11:09:51.365Z,101377.91
2023-04-10T11:14:43.137Z,101376.88
2023-04-10T11:20:00.371Z,101363.06
2023-04-10T11:25:18.005Z,101361.38
2023-04-10T11:30:30.458Z,101355.34
2023-04-10T11:35:23.267Z,101342.59
2023-04-10T11:40:17.365Z,101336.41
2023-04-10T11:45:40.740Z,101326.66
2023-04-10T11:50:47.633Z,101309.06
2023-04-10T11:55:43.472Z,101287.38
2023-04-10T12:00:33.730Z,101290.78
2023-04-10T12:05:23.724Z,101267.75
2023-04-10T12:10:13.791Z,101273.78
2023-04-10T12:15:26.702Z,101265.41
2023-04-10T12:20:27.153Z,101263.06
2023-04-10T12:25:17.681Z,101264.16
2023-04-10T12:30:14.756Z,101259.16
2023-04-10T12:35:09.635Z,101266.13
2023-04-10T12:40:17.047Z,101261.75
2023-04-10T12:45:11.975Z,101257.69
2023-04-10T12:50:21.274Z,101250.75
2023-04-10T12:55:14.657Z,101237.06
2023-04-10T13:00:06.648Z,101239.00
2023-04-10T13:05:05.426Z,101210.56
2023-04-10T13:09:59.804Z,101197.84
2023-04-10T13:14:52.013Z,101183.25
2023-04-10T13:19:45.337Z,101167.69
2023-04-10T13:24:40.139Z,101159.00
2023-04-10T13:29:38.912Z,101154.53
2023-04-10T13:34:32.304Z,101135.44
2023-04-10T13:39:43.703Z,101144.09
2023-04-10T13:44:41.776Z,101156.38
2023-04-10T13:49:39.812Z,101153.06
2023-04-10T13:54:33.653Z,101147.28
2023-04-10T13:59:24.629Z,101145.00
2023-04-10T14:04:18.871Z,101165.16
2023-04-10T14:09:12.005Z,101169.75
2023-04-10T14:14:14.169Z,101136.94
2023-04-10T14:19:05.892Z,101132.63
2023-04-10T14:24:01.121Z,101095.47
2023-04-10T14:28:54.151Z,101079.94
2023-04-10T14:34:04.765Z,101068.78
2023-04-10T14:39:01.903Z,101070.50
2023-04-10T14:43:58.812Z,101052.16
2023-04-10T14:48:54.520Z,101050.44
2023-04-10T14:53:55.455Z,101065.84
2023-04-10T14:58:58.747Z,101060.72
2023-04-10T15:03:54.066Z,101073.75
2023-04-10T15:08:52.648Z,101079.88
2023-04-10T15:13:47.019Z,101079.16
2023-04-10T15:18:50.112Z,101092.34
2023-04-10T15:23:47.840Z,101097.66
2023-04-10T15:28:44.599Z,101087.44
2023-04-10T15:33:40.000Z,101077.91
2023-04-10T15:38:39.213Z,101085.72
2023-04-10T15:43:43.676Z,101071.00
2023-04-10T15:48:37.742Z,101057.97
2023-04-10T15:53:33.010Z,101038.22
2023-04-10T15:58:30.627Z,101045.09
2023-04-10T16:03:28.561Z,101025.25
2023-04-10T16:08:23.289Z,101035.59
2023-04-10T16:13:22.877Z,101039.94
2023-04-10T16:18:17.439Z,101033.03
2023-04-10T16:23:11.337Z,101033.91
2023-04-10T16:28:03.392Z,101017.41
2023-04-10T16:32:58.757Z,101021.78
2023-04-10T16:37:54.940Z,101002.75
2023-04-10T16:42:47.599Z,101007.06
2023-04-10T16:47:50.219Z,101004.47
2023-04-10T16:52:46.614Z,101007.16
2023-04-10T16:57:44.372Z,101000.22
2023-04-10T17:02:36.677Z,101007.09
2023-04-10T17:07:27.898Z,100994.09
2023-04-10T17:12:21.127Z,100970.72
2023-04-10T17:17:19.160Z,100963.72
2023-04-10T17:22:17.082Z,100949.91
2023-04-10T17:27:07.981Z,100943.84
2023-04-10T17:32:00.447Z,100920.53
2023-04-10T17:36:57.389Z,100925.72
2023-04-10T17:41:50.900Z,100912.78
2023-04-10T17:46:44.142Z,100900.63
2023-04-10T17:51:38.746Z,100924.94
2023-04-10T17:56:42.769Z,100907.66
2023-04-10T18:01:38.732Z,100912.03
2023-04-10T18:06:32.825Z,100924.22
2023-04-10T18:11:24.807Z,100933.72
2023-04-10T18:16:18.709Z,100919.81
2023-04-10T18:21:15.136Z,100933.81
2023-04-10T18:26:07.171Z,100927.78
2023-04-10T18:31:05.077Z,100903.56
2023-04-10T18:36:00.770Z,100881.06
2023-04-10T18:40:53.173Z,100901.88
2023-04-10T18:45:46.508Z,100908.00
2023-04-10T18:50:43.102Z,100920.13
2023-04-10T18:55:51.649Z,100919.31
2023-04-10T19:00:45.801Z,100923.63
2023-04-10T19:05:42.444Z,100908.03
2023-04-10T19:10:36.689Z,100893.38
2023-04-10T19:15:31.296Z,100891.63
2023-04-10T19:20:52.691Z,100890.78
2023-04-10T19:25:41.400Z,100888.22
2023-04-10T19:30:36.013Z,100878.75
2023-04-10T19:35:32.797Z,100880.50
2023-04-10T19:40:25.263Z,100882.81
2023-04-10T19:45:27.933Z,100906.00
2023-04-10T19:50:23.754Z,100898.19
2023-04-10T19:55:22.298Z,100897.41
2023-04-10T20:00:17.566Z,100885.97
2023-04-10T20:05:08.949Z,100895.56
2023-04-10T20:10:03.949Z,100878.28
2023-04-10T20:14:54.635Z,100867.06
2023-04-10T20:19:50.483Z,100869.56
2023-04-10T20:24:40.944Z,100878.22
2023-04-10T20:29:35.291Z,100874.84
2023-04-10T20:34:25.929Z,100875.78
2023-04-10T20:39:17.874Z,100863.63
2023-04-10T20:44:08.739Z,100852.41
2023-04-10T20:49:01.517Z,100847.19
2023-04-10T20:53:52.433Z,100855.81
2023-04-10T20:58:43.520Z,100847.38
2023-04-10T21:03:38.079Z,100861.16
2023-04-10T21:08:31.289Z,100856.84
2023-04-10T21:13:21.520Z,100840.47
2023-04-10T21:18:14.025Z,100858.66
2023-04-10T21:23:06.978Z,100857.00
2023-04-10T21:28:01.986Z,100861.25
2023-04-10T21:32:55.492Z,100871.66
2023-04-10T21:37:46.501Z,100869.03
2023-04-10T21:42:39.983Z,100870.91
2023-04-10T21:47:32.992Z,100885.50
2023-04-10T21:52:23.736Z,100888.22
2023-04-10T21:57:14.765Z,100876.81
2023-04-10T22:02:05.391Z,100880.28
2023-04-10T22:06:58.940Z,100880.28
2023-04-10T22:11:50.229Z,100873.38
2023-04-10T22:16:40.646Z,100882.09
2023-04-10T22:21:32.995Z,100889.03
2023-04-10T22:26:27.849Z,100887.28
2023-04-10T22:31:19.312Z,100885.59
2023-04-10T22:36:11.022Z,100880.41
2023-04-10T22:41:01.675Z,100877.06
2023-04-10T22:45:54.905Z,100884.81
2023-04-10T22:50:46.183Z,100885.75
2023-04-10T22:55:37.296Z,100889.22
2023-04-10T23:00:28.233Z,100881.47
2023-04-10T23:05:24.080Z,100896.13
2023-04-10T23:10:15.638Z,100898.84
2023-04-10T23:15:05.848Z,100894.41
2023-04-10T23:19:57.522Z,100892.75
2023-04-10T23:24:50.981Z,100908.25
2023-04-10T23:29:40.980Z,100910.06
2023-04-10T23:34:31.275Z,100888.44
2023-04-10T23:39:22.945Z,100904.88
2023-04-10T23:44:16.211Z,100899.75
2023-04-10T23:49:07.038Z,100891.16
2023-04-10T23:53:57.765Z,100886.84
2023-04-10T23:58:49.029Z,100899.84
